Main page
METAR-TAF:

METAR-TAF

Airports :

Foz do Iguaçu International Airport

Foz do Iguaçu, Paraná, Brazil

latitude: 25-31S, longitude: 054-35W, elevation: 180 m

Current weather observation

The report was made 27 minutes ago, at 23:00 UTC
Wind 3 kt from the South
Temperature 29°C
Humidity 70%
Pressure 1013 hPa
Visibility 10 km or more
no clouds below 1500 m and no cumulonimbus

METAR: SBFI 212300Z 17003KT CAVOK 29/23 Q1013

Time: 21:27 (23:27 UTC)

Forecast

The report was made 8 hours and 57 minutes ago, at 14:30 UTC
Forecast valid from 21 at 18 UTC to 22 at 18 UTC
Wind 7 kt from the East
Visibility 10 km or more
Scattered clouds at a height of 3000 ft
Becoming
from 21 at 22 UTC to 21 at 24 UTC
Visibility 10 km or more
no clouds below 1500 m and no cumulonimbus
Becoming
from 22 at 12 UTC to 22 at 14 UTC
Visibility 10 km or more
Few clouds at a height of 3000 ft

TAF: SBFI 211430Z 2118/2218 08007KT 9999 SCT030 TN20/2208Z TX32/2218Z BECMG 2122/2124 CAVOK BECMG 2212/2214 9999 FEW030 RMK PEL

Weather observations and forecasts of more than 4000 airports (METAR and TAF reports).

The available stations are represented by yellow and red dots on the map.

Hover mouse over dot to see the name of the station.

Then click to see weather observations and forecasts.

To change the map : click on the green buttons with a black cross to zoom in, on the green button with a dash to zoom out, or on the green arrows for adjacent maps.


METAR-TAF: